Portada
METAR-TAF:

METAR-TAF

Aeroports :

Hambantota, Sri Lanka

latitud: 06-17-20N, longitud: 81-07-25E, altitud: 48 m

Observació

L'informe es va fer fa 2 hores i 43 minuts, a les 15:10 UTC
Vent 7 kt del Est/Nord-Est
Temperatura 26°C
Humitat 89%
Pressió 1012 hPa
Visibilitat 10 km o més
Escasses núvols a una alçada de 1800 ft
Núvols disperses a una alçada de 10000 ft

METAR: VCRI 241510Z 07007KT 9999 FEW018 SCT100 26/24 Q1012 NOSIG

Hora: 23:23 (17:53 UTC)

Pronòstic

L'informe es va fer fa 53 minuts, a les 17:00 UTC
Pronòstic vàlid del 24 a les 18 UTC al 25 a les 24 UTC
Vent 8 kt del Nord-Est
Visibilitat 10 km o més
Escasses núvols a una alçada de 1800 ft
Núvols disperses a una alçada de 10000 ft
Evolucionant progressivament
l' 25 a les 12 UTC al 25 a les 14 UTC
Vent 5 kt amb direcció variable

TAF: VCRI 241700Z 2418/2524 05008KT 9999 FEW018 SCT100 TX32/2507Z TN21/2500Z BECMG 2512/2514 VRB05KT

Observacions i pronòstics meteorològics de més de 4000 aeroports (METAR i TAF).

Les estacions disponibles són els punts grocs i vermells al mapa.

Posi el ratolí al punt desitjat per veure el nom de l'estació.

Feu clic per veure les observacions i els pronòstics meteorològics.

Per canviar el mapa: feu clic els botons verds amb una creu de color negre per apropar; al botó verd amb un guió per allunyar la imatge; o en les fletxes verdes per a mapes adjacents.


METAR-TAF: